sensor_id;sensor_type;location;lat;lon;timestamp;pressure;altitude;pressure_sealevel;temperature;humidity
33496;BME280;19836;55.812;37.560;2023-03-18T00:02:08;101306.09;;;0.34;43.87
33496;BME280;19836;55.812;37.560;2023-03-18T00:04:34;101300.59;;;0.28;44.16
33496;BME280;19836;55.812;37.560;2023-03-18T00:07:03;101306.81;;;0.30;43.96
33496;BME280;19836;55.812;37.560;2023-03-18T00:09:33;101305.88;;;0.28;44.19
33496;BME280;19836;55.812;37.560;2023-03-18T00:11:59;101313.72;;;0.26;44.39
33496;BME280;19836;55.812;37.560;2023-03-18T00:14:25;101308.38;;;0.23;44.35
33496;BME280;19836;55.812;37.560;2023-03-18T00:16:51;101312.59;;;0.20;44.10
33496;BME280;19836;55.812;37.560;2023-03-18T00:19:17;101307.25;;;0.17;44.55
33496;BME280;19836;55.812;37.560;2023-03-18T00:21:43;101309.88;;;0.17;44.24
33496;BME280;19836;55.812;37.560;2023-03-18T00:24:09;101315.09;;;0.15;44.73
33496;BME280;19836;55.812;37.560;2023-03-18T00:26:36;101311.53;;;0.15;44.75
33496;BME280;19836;55.812;37.560;2023-03-18T00:29:03;101312.31;;;0.12;44.50
33496;BME280;19836;55.812;37.560;2023-03-18T00:31:29;101318.50;;;0.13;44.43
33496;BME280;19836;55.812;37.560;2023-03-18T00:33:56;101319.22;;;0.09;44.86
33496;BME280;19836;55.812;37.560;2023-03-18T00:36:22;101319.06;;;0.04;44.87
33496;BME280;19836;55.812;37.560;2023-03-18T00:38:54;101322.50;;;0.02;45.17
33496;BME280;19836;55.812;37.560;2023-03-18T00:41:25;101320.72;;;0.01;44.89
33496;BME280;19836;55.812;37.560;2023-03-18T00:43:52;101316.16;;;-0.03;45.16
33496;BME280;19836;55.812;37.560;2023-03-18T00:46:22;101322.28;;;-0.04;44.93
33496;BME280;19836;55.812;37.560;2023-03-18T00:48:50;101324.84;;;-0.06;45.03
33496;BME280;19836;55.812;37.560;2023-03-18T00:51:20;101326.56;;;-0.06;45.11
33496;BME280;19836;55.812;37.560;2023-03-18T00:53:50;101322.00;;;-0.12;45.25
33496;BME280;19836;55.812;37.560;2023-03-18T00:56:18;101327.13;;;-0.15;45.25
33496;BME280;19836;55.812;37.560;2023-03-18T00:58:46;101326.25;;;-0.15;45.39
33496;BME280;19836;55.812;37.560;2023-03-18T01:01:13;101331.38;;;-0.18;45.39
33496;BME280;19836;55.812;37.560;2023-03-18T01:03:41;101332.22;;;-0.19;46.13
33496;BME280;19836;55.812;37.560;2023-03-18T01:06:09;101334.88;;;-0.19;45.80
33496;BME280;19836;55.812;37.560;2023-03-18T01:08:36;101324.19;;;-0.22;45.97
33496;BME280;19836;55.812;37.560;2023-03-18T01:11:03;101332.16;;;-0.21;45.96
33496;BME280;19836;55.812;37.560;2023-03-18T01:13:29;101337.44;;;-0.21;46.38
33496;BME280;19836;55.812;37.560;2023-03-18T01:15:55;101337.38;;;-0.22;46.10
33496;BME280;19836;55.812;37.560;2023-03-18T01:18:22;101339.13;;;-0.22;46.08
33496;BME280;19836;55.812;37.560;2023-03-18T01:20:49;101337.31;;;-0.24;46.14
33496;BME280;19836;55.812;37.560;2023-03-18T01:23:18;101346.97;;;-0.24;46.35
33496;BME280;19836;55.812;37.560;2023-03-18T01:25:45;101343.50;;;-0.23;46.31
33496;BME280;19836;55.812;37.560;2023-03-18T01:28:16;101344.34;;;-0.24;46.46
33496;BME280;19836;55.812;37.560;2023-03-18T01:30:43;101345.19;;;-0.25;46.01
33496;BME280;19836;55.812;37.560;2023-03-18T01:33:10;101353.78;;;-0.29;46.67
33496;BME280;19836;55.812;37.560;2023-03-18T01:35:36;101353.00;;;-0.27;47.05
33496;BME280;19836;55.812;37.560;2023-03-18T01:38:04;101361.69;;;-0.29;46.78
33496;BME280;19836;55.812;37.560;2023-03-18T01:40:36;101358.16;;;-0.30;46.80
33496;BME280;19836;55.812;37.560;2023-03-18T01:43:23;101357.66;;;-0.20;46.46
33496;BME280;19836;55.812;37.560;2023-03-18T01:45:53;101368.25;;;-0.18;46.53
33496;BME280;19836;55.812;37.560;2023-03-18T01:48:24;101357.94;;;-0.12;46.69
33496;BME280;19836;55.812;37.560;2023-03-18T01:50:58;101367.78;;;-0.08;46.81
33496;BME280;19836;55.812;37.560;2023-03-18T01:53:31;101365.19;;;-0.07;46.97
33496;BME280;19836;55.812;37.560;2023-03-18T01:56:01;101370.28;;;-0.11;46.82
33496;BME280;19836;55.812;37.560;2023-03-18T01:58:32;101372.91;;;-0.11;46.71
33496;BME280;19836;55.812;37.560;2023-03-18T02:01:07;101378.31;;;-0.08;46.93
33496;BME280;19836;55.812;37.560;2023-03-18T02:03:38;101384.53;;;-0.06;46.91
33496;BME280;19836;55.812;37.560;2023-03-18T02:06:07;101383.72;;;-0.05;46.99
33496;BME280;19836;55.812;37.560;2023-03-18T02:08:37;101388.97;;;-0.05;46.99
33496;BME280;19836;55.812;37.560;2023-03-18T02:11:09;101388.91;;;-0.07;46.84
33496;BME280;19836;55.812;37.560;2023-03-18T02:13:40;101383.50;;;-0.10;47.14
33496;BME280;19836;55.812;37.560;2023-03-18T02:16:15;101394.81;;;-0.12;46.98
33496;BME280;19836;55.812;37.560;2023-03-18T02:18:48;101391.25;;;-0.14;47.22
33496;BME280;19836;55.812;37.560;2023-03-18T02:24:13;101402.56;;;-0.17;46.96
33496;BME280;19836;55.812;37.560;2023-03-18T02:27:10;101400.09;;;-0.12;46.97
33496;BME280;19836;55.812;37.560;2023-03-18T02:29:40;101405.28;;;-0.14;47.28
33496;BME280;19836;55.812;37.560;2023-03-18T02:32:16;101406.81;;;-0.20;46.97
33496;BME280;19836;55.812;37.560;2023-03-18T02:34:44;101410.25;;;-0.21;47.59
33496;BME280;19836;55.812;37.560;2023-03-18T02:37:10;101416.69;;;-0.15;47.52
33496;BME280;19836;55.812;37.560;2023-03-18T02:39:39;101419.16;;;-0.19;47.28
33496;BME280;19836;55.812;37.560;2023-03-18T02:42:06;101420.00;;;-0.20;47.23
33496;BME280;19836;55.812;37.560;2023-03-18T02:44:37;101417.22;;;-0.23;47.62
33496;BME280;19836;55.812;37.560;2023-03-18T02:47:23;101419.00;;;-0.22;47.65
33496;BME280;19836;55.812;37.560;2023-03-18T02:49:52;101419.72;;;-0.26;47.17
33496;BME280;19836;55.812;37.560;2023-03-18T02:52:18;101422.06;;;-0.34;47.40
33496;BME280;19836;55.812;37.560;2023-03-18T02:54:44;101425.47;;;-0.36;47.55
33496;BME280;19836;55.812;37.560;2023-03-18T02:57:10;101434.09;;;-0.40;47.76
33496;BME280;19836;55.812;37.560;2023-03-18T02:59:40;101428.88;;;-0.39;47.59
33496;BME280;19836;55.812;37.560;2023-03-18T03:02:07;101432.25;;;-0.43;47.66
33496;BME280;19836;55.812;37.560;2023-03-18T03:04:33;101433.97;;;-0.43;47.75
33496;BME280;19836;55.812;37.560;2023-03-18T03:06:59;101438.38;;;-0.42;47.86
33496;BME280;19836;55.812;37.560;2023-03-18T03:09:35;101448.84;;;-0.44;47.94
33496;BME280;19836;55.812;37.560;2023-03-18T03:12:03;101442.41;;;-0.52;47.90
33496;BME280;19836;55.812;37.560;2023-03-18T03:14:29;101448.28;;;-0.57;48.09
33496;BME280;19836;55.812;37.560;2023-03-18T03:16:58;101449.84;;;-0.62;47.69
33496;BME280;19836;55.812;37.560;2023-03-18T03:19:25;101446.06;;;-0.69;48.11
33496;BME280;19836;55.812;37.560;2023-03-18T03:21:51;101447.88;;;-0.68;48.24
33496;BME280;19836;55.812;37.560;2023-03-18T03:24:16;101453.91;;;-0.70;48.26
33496;BME280;19836;55.812;37.560;2023-03-18T03:26:42;101447.59;;;-0.74;48.27
33496;BME280;19836;55.812;37.560;2023-03-18T03:29:10;101451.84;;;-0.77;48.57
33496;BME280;19836;55.812;37.560;2023-03-18T03:31:37;101456.00;;;-0.82;48.57
33496;BME280;19836;55.812;37.560;2023-03-18T03:34:05;101447.00;;;-0.87;48.59
33496;BME280;19836;55.812;37.560;2023-03-18T03:36:31;101452.16;;;-0.90;48.70
33496;BME280;19836;55.812;37.560;2023-03-18T03:38:57;101461.84;;;-0.89;48.77
33496;BME280;19836;55.812;37.560;2023-03-18T03:41:24;101461.09;;;-0.87;48.87
33496;BME280;19836;55.812;37.560;2023-03-18T03:43:50;101454.84;;;-0.89;48.63
33496;BME280;19836;55.812;37.560;2023-03-18T03:46:16;101465.31;;;-0.90;48.65
33496;BME280;19836;55.812;37.560;2023-03-18T03:48:42;101466.19;;;-0.90;48.60
33496;BME280;19836;55.812;37.560;2023-03-18T03:51:11;101467.88;;;-0.92;48.99
33496;BME280;19836;55.812;37.560;2023-03-18T03:53:37;101464.41;;;-0.91;48.82
33496;BME280;19836;55.812;37.560;2023-03-18T03:56:04;101472.22;;;-0.92;49.10
33496;BME280;19836;55.812;37.560;2023-03-18T03:58:32;101459.91;;;-0.93;49.35
33496;BME280;19836;55.812;37.560;2023-03-18T04:00:58;101465.19;;;-0.93;48.96
33496;BME280;19836;55.812;37.560;2023-03-18T04:03:24;101469.75;;;-0.89;49.37
33496;BME280;19836;55.812;37.560;2023-03-18T04:05:50;101477.75;;;-0.86;49.35
33496;BME280;19836;55.812;37.560;2023-03-18T04:08:21;101468.28;;;-0.82;49.30
33496;BME280;19836;55.812;37.560;2023-03-18T04:10:47;101474.41;;;-0.82;49.57
33496;BME280;19836;55.812;37.560;2023-03-18T04:13:14;101463.97;;;-0.81;49.64
33496;BME280;19836;55.812;37.560;2023-03-18T04:15:40;101465.00;;;-0.77;49.47
33496;BME280;19836;55.812;37.560;2023-03-18T04:18:10;101465.19;;;-0.73;49.15
33496;BME280;19836;55.812;37.560;2023-03-18T04:20:38;101468.00;;;-0.68;49.40
33496;BME280;19836;55.812;37.560;2023-03-18T04:23:12;101474.22;;;-0.66;48.94
33496;BME280;19836;55.812;37.560;2023-03-18T04:25:39;101478.69;;;-0.65;49.44
33496;BME280;19836;55.812;37.560;2023-03-18T04:28:05;101482.41;;;-0.60;49.55
33496;BME280;19836;55.812;37.560;2023-03-18T04:30:31;101479.78;;;-0.60;49.38
33496;BME280;19836;55.812;37.560;2023-03-18T04:33:02;101478.16;;;-0.57;49.64
33496;BME280;19836;55.812;37.560;2023-03-18T04:35:29;101480.91;;;-0.54;49.43
33496;BME280;19836;55.812;37.560;2023-03-18T04:37:55;101490.66;;;-0.51;49.35
33496;BME280;19836;55.812;37.560;2023-03-18T04:40:23;101486.38;;;-0.49;49.09
33496;BME280;19836;55.812;37.560;2023-03-18T04:42:49;101482.91;;;-0.48;49.64
33496;BME280;19836;55.812;37.560;2023-03-18T04:45:17;101485.69;;;-0.45;49.64
33496;BME280;19836;55.812;37.560;2023-03-18T04:47:45;101492.78;;;-0.43;49.49
33496;BME280;19836;55.812;37.560;2023-03-18T04:50:13;101486.63;;;-0.43;49.21
33496;BME280;19836;55.812;37.560;2023-03-18T04:52:40;101491.13;;;-0.41;49.34
33496;BME280;19836;55.812;37.560;2023-03-18T04:55:09;101499.25;;;-0.35;49.15
33496;BME280;19836;55.812;37.560;2023-03-18T04:57:37;101492.44;;;-0.30;49.53
33496;BME280;19836;55.812;37.560;2023-03-18T05:00:08;101497.16;;;-0.22;49.33
33496;BME280;19836;55.812;37.560;2023-03-18T05:02:37;101499.94;;;-0.18;49.61
33496;BME280;19836;55.812;37.560;2023-03-18T05:05:05;101499.34;;;-0.11;49.86
33496;BME280;19836;55.812;37.560;2023-03-18T05:07:37;101499.63;;;-0.05;49.66
33496;BME280;19836;55.812;37.560;2023-03-18T05:10:09;101495.44;;;0.00;49.34
33496;BME280;19836;55.812;37.560;2023-03-18T05:12:36;101493.03;;;0.06;49.67
33496;BME280;19836;55.812;37.560;2023-03-18T05:15:04;101500.25;;;0.11;49.32
33496;BME280;19836;55.812;37.560;2023-03-18T05:17:32;101506.53;;;0.15;49.58
33496;BME280;19836;55.812;37.560;2023-03-18T05:20:01;101502.31;;;0.18;49.61
33496;BME280;19836;55.812;37.560;2023-03-18T05:22:29;101509.59;;;0.25;49.27
33496;BME280;19836;55.812;37.560;2023-03-18T05:25:07;101510.53;;;0.26;49.22
33496;BME280;19836;55.812;37.560;2023-03-18T05:27:34;101508.03;;;0.30;48.86
33496;BME280;19836;55.812;37.560;2023-03-18T05:30:06;101514.31;;;0.34;49.10
33496;BME280;19836;55.812;37.560;2023-03-18T05:32:43;101510.13;;;0.39;49.13
33496;BME280;19836;55.812;37.560;2023-03-18T05:35:10;101504.22;;;0.44;49.04
33496;BME280;19836;55.812;37.560;2023-03-18T05:37:45;101504.28;;;0.46;49.04
33496;BME280;19836;55.812;37.560;2023-03-18T05:40:12;101510.56;;;0.49;49.06
33496;BME280;19836;55.812;37.560;2023-03-18T05:42:44;101504.50;;;0.52;48.64
33496;BME280;19836;55.812;37.560;2023-03-18T05:45:11;101507.22;;;0.55;48.41
33496;BME280;19836;55.812;37.560;2023-03-18T05:47:46;101511.78;;;0.59;48.65
33496;BME280;19836;55.812;37.560;2023-03-18T05:50:37;101507.44;;;0.59;48.48
33496;BME280;19836;55.812;37.560;2023-03-18T05:53:06;101509.22;;;0.60;48.30
33496;BME280;19836;55.812;37.560;2023-03-18T05:55:37;101515.28;;;0.58;48.40
33496;BME280;19836;55.812;37.560;2023-03-18T05:58:03;101518.75;;;0.57;48.09
33496;BME280;19836;55.812;37.560;2023-03-18T06:00:30;101520.41;;;0.55;48.13
33496;BME280;19836;55.812;37.560;2023-03-18T06:02:59;101522.25;;;0.56;48.43
33496;BME280;19836;55.812;37.560;2023-03-18T06:05:26;101530.16;;;0.56;48.01
33496;BME280;19836;55.812;37.560;2023-03-18T06:07:53;101529.31;;;0.57;47.81
33496;BME280;19836;55.812;37.560;2023-03-18T06:10:21;101533.88;;;0.61;47.81
33496;BME280;19836;55.812;37.560;2023-03-18T06:12:49;101533.00;;;0.62;48.00
33496;BME280;19836;55.812;37.560;2023-03-18T06:15:16;101526.97;;;0.64;47.81
33496;BME280;19836;55.812;37.560;2023-03-18T06:17:44;101527.06;;;0.67;47.78
33496;BME280;19836;55.812;37.560;2023-03-18T06:20:12;101529.75;;;0.69;48.05
33496;BME280;19836;55.812;37.560;2023-03-18T06:22:40;101529.09;;;0.74;47.52
33496;BME280;19836;55.812;37.560;2023-03-18T06:25:07;101534.59;;;0.80;47.63
33496;BME280;19836;55.812;37.560;2023-03-18T06:27:36;101539.09;;;0.83;47.58
33496;BME280;19836;55.812;37.560;2023-03-18T06:30:04;101532.13;;;0.85;47.42
33496;BME280;19836;55.812;37.560;2023-03-18T06:32:32;101537.53;;;0.88;47.42
33496;BME280;19836;55.812;37.560;2023-03-18T06:34:59;101532.38;;;0.91;47.43
33496;BME280;19836;55.812;37.560;2023-03-18T06:37:26;101534.25;;;0.95;47.14
33496;BME280;19836;55.812;37.560;2023-03-18T06:39:53;101539.66;;;0.98;47.25
33496;BME280;19836;55.812;37.560;2023-03-18T06:42:19;101539.78;;;1.01;47.28
33496;BME280;19836;55.812;37.560;2023-03-18T06:44:55;101545.34;;;1.10;46.96
33496;BME280;19836;55.812;37.560;2023-03-18T06:47:31;101536.84;;;1.17;46.84
33496;BME280;19836;55.812;37.560;2023-03-18T06:49:57;101540.59;;;1.23;46.72
33496;BME280;19836;55.812;37.560;2023-03-18T06:52:33;101542.53;;;1.29;46.20
33496;BME280;19836;55.812;37.560;2023-03-18T06:55:10;101555.81;;;1.30;46.34
33496;BME280;19836;55.812;37.560;2023-03-18T06:57:39;101542.66;;;1.32;46.02
33496;BME280;19836;55.812;37.560;2023-03-18T07:00:07;101545.44;;;1.36;45.72
33496;BME280;19836;55.812;37.560;2023-03-18T07:02:35;101542.19;;;1.43;45.83
33496;BME280;19836;55.812;37.560;2023-03-18T07:05:02;101549.53;;;1.52;45.78
33496;BME280;19836;55.812;37.560;2023-03-18T07:07:32;101548.03;;;1.60;45.79
33496;BME280;19836;55.812;37.560;2023-03-18T07:09:58;101538.53;;;1.65;45.33
33496;BME280;19836;55.812;37.560;2023-03-18T07:12:28;101542.53;;;1.79;45.23
33496;BME280;19836;55.812;37.560;2023-03-18T07:14:54;101537.56;;;1.88;44.83
33496;BME280;19836;55.812;37.560;2023-03-18T07:17:21;101547.53;;;1.96;45.16
33496;BME280;19836;55.812;37.560;2023-03-18T07:19:53;101538.19;;;2.06;44.63
33496;BME280;19836;55.812;37.560;2023-03-18T07:22:19;101542.06;;;2.17;44.66
33496;BME280;19836;55.812;37.560;2023-03-18T07:24:46;101538.84;;;2.27;44.05
33496;BME280;19836;55.812;37.560;2023-03-18T07:27:12;101533.81;;;2.34;43.73
33496;BME280;19836;55.812;37.560;2023-03-18T07:29:39;101536.75;;;2.43;43.38
33496;BME280;19836;55.812;37.560;2023-03-18T07:32:05;101544.91;;;2.51;43.04
33496;BME280;19836;55.812;37.560;2023-03-18T07:34:31;101537.09;;;2.55;42.61
33496;BME280;19836;55.812;37.560;2023-03-18T07:36:57;101533.94;;;2.67;42.59
33496;BME280;19836;55.812;37.560;2023-03-18T07:39:23;101538.72;;;2.80;42.50
33496;BME280;19836;55.812;37.560;2023-03-18T07:41:49;101540.78;;;2.90;42.30
33496;BME280;19836;55.812;37.560;2023-03-18T07:44:20;101544.56;;;2.98;41.63
33496;BME280;19836;55.812;37.560;2023-03-18T07:46:46;101539.44;;;3.04;41.37
33496;BME280;19836;55.812;37.560;2023-03-18T07:49:15;101539.53;;;3.07;40.61
33496;BME280;19836;55.812;37.560;2023-03-18T07:51:41;101546.72;;;3.12;40.25
33496;BME280;19836;55.812;37.560;2023-03-18T07:54:07;101542.56;;;3.20;40.15
33496;BME280;19836;55.812;37.560;2023-03-18T07:56:33;101542.63;;;3.23;40.16
33496;BME280;19836;55.812;37.560;2023-03-18T07:58:59;101535.81;;;3.31;40.08
33496;BME280;19836;55.812;37.560;2023-03-18T08:01:25;101526.38;;;3.42;40.38
33496;BME280;19836;55.812;37.560;2023-03-18T08:03:52;101538.09;;;3.50;40.07
33496;BME280;19836;55.812;37.560;2023-03-18T08:06:20;101531.16;;;3.55;39.72
33496;BME280;19836;55.812;37.560;2023-03-18T08:08:46;101529.44;;;3.57;39.16
33496;BME280;19836;55.812;37.560;2023-03-18T08:11:12;101540.91;;;3.56;38.80
33496;BME280;19836;55.812;37.560;2023-03-18T08:13:39;101537.34;;;3.56;38.65
33496;BME280;19836;55.812;37.560;2023-03-18T08:16:05;101532.09;;;3.57;38.62
33496;BME280;19836;55.812;37.560;2023-03-18T08:18:31;101530.59;;;3.67;38.50
33496;BME280;19836;55.812;37.560;2023-03-18T08:20:57;101528.34;;;3.82;38.61
33496;BME280;19836;55.812;37.560;2023-03-18T08:23:26;101528.53;;;3.89;38.17
33496;BME280;19836;55.812;37.560;2023-03-18T08:25:52;101522.53;;;3.98;38.26
33496;BME280;19836;55.812;37.560;2023-03-18T08:28:28;101528.00;;;4.04;37.87
33496;BME280;19836;55.812;37.560;2023-03-18T08:30:57;101525.47;;;4.10;37.38
33496;BME280;19836;55.812;37.560;2023-03-18T08:33:25;101521.09;;;4.10;36.89
33496;BME280;19836;55.812;37.560;2023-03-18T08:35:52;101521.97;;;4.11;36.88
33496;BME280;19836;55.812;37.560;2023-03-18T08:38:20;101524.69;;;4.14;36.49
33496;BME280;19836;55.812;37.560;2023-03-18T08:40:47;101524.84;;;4.20;36.45
33496;BME280;19836;55.812;37.560;2023-03-18T08:43:16;101525.84;;;4.25;36.18
33496;BME280;19836;55.812;37.560;2023-03-18T08:45:42;101520.69;;;4.31;35.89
33496;BME280;19836;55.812;37.560;2023-03-18T08:48:08;101519.09;;;4.39;35.75
33496;BME280;19836;55.812;37.560;2023-03-18T08:50:35;101523.63;;;4.43;35.20
33496;BME280;19836;55.812;37.560;2023-03-18T08:53:02;101525.50;;;4.47;35.23
33496;BME280;19836;55.812;37.560;2023-03-18T08:55:33;101513.28;;;4.55;34.82
33496;BME280;19836;55.812;37.560;2023-03-18T08:57:59;101508.16;;;4.64;34.59
33496;BME280;19836;55.812;37.560;2023-03-18T09:00:26;101509.22;;;4.70;34.37
33496;BME280;19836;55.812;37.560;2023-03-18T09:02:52;101510.09;;;4.71;33.72
33496;BME280;19836;55.812;37.560;2023-03-18T09:05:21;101510.94;;;4.70;33.67
33496;BME280;19836;55.812;37.560;2023-03-18T09:07:47;101496.00;;;4.75;33.42
33496;BME280;19836;55.812;37.560;2023-03-18T09:10:16;101501.47;;;4.82;32.93
33496;BME280;19836;55.812;37.560;2023-03-18T09:12:44;101504.22;;;4.85;32.89
33496;BME280;19836;55.812;37.560;2023-03-18T09:15:12;101501.75;;;4.96;32.80
33496;BME280;19836;55.812;37.560;2023-03-18T09:17:39;101494.31;;;5.21;32.45
33496;BME280;19836;55.812;37.560;2023-03-18T09:20:13;101497.50;;;5.50;32.17
33496;BME280;19836;55.812;37.560;2023-03-18T09:22:42;101486.69;;;5.88;31.92
33496;BME280;19836;55.812;37.560;2023-03-18T09:25:08;101476.41;;;7.47;31.22
33496;BME280;19836;55.812;37.560;2023-03-18T09:27:37;101476.78;;;9.71;29.62
33496;BME280;19836;55.812;37.560;2023-03-18T09:30:07;101471.75;;;11.67;27.92
33496;BME280;19836;55.812;37.560;2023-03-18T09:32:33;101459.53;;;13.14;27.21
33496;BME280;19836;55.812;37.560;2023-03-18T09:35:02;101465.91;;;14.25;25.63
33496;BME280;19836;55.812;37.560;2023-03-18T09:37:31;101467.84;;;15.88;24.85
33496;BME280;19836;55.812;37.560;2023-03-18T09:39:57;101453.69;;;16.81;23.73
33496;BME280;19836;55.812;37.560;2023-03-18T09:42:40;101444.09;;;17.59;22.38
33496;BME280;19836;55.812;37.560;2023-03-18T09:45:47;101451.25;;;17.89;21.67
33496;BME280;19836;55.812;37.560;2023-03-18T09:48:42;101435.50;;;18.52;21.22
33496;BME280;19836;55.812;37.560;2023-03-18T09:54:26;101436.69;;;19.40;19.84
33496;BME280;19836;55.812;37.560;2023-03-18T09:56:55;101426.69;;;20.07;19.56
33496;BME280;19836;55.812;37.560;2023-03-18T09:59:29;101426.78;;;20.67;18.81
33496;BME280;19836;55.812;37.560;2023-03-18T10:01:59;101422.88;;;20.72;18.49
33496;BME280;19836;55.812;37.560;2023-03-18T10:04:40;101423.41;;;21.20;17.61
33496;BME280;19836;55.812;37.560;2023-03-18T10:07:17;101416.53;;;21.69;17.03
33496;BME280;19836;55.812;37.560;2023-03-18T10:09:57;101410.34;;;22.70;16.60
33496;BME280;19836;55.812;37.560;2023-03-18T10:15:20;101403.78;;;23.70;15.50
33496;BME280;19836;55.812;37.560;2023-03-18T10:18:17;101405.97;;;23.79;14.95
33496;BME280;19836;55.812;37.560;2023-03-18T10:21:01;101402.75;;;24.33;14.63
33496;BME280;19836;55.812;37.560;2023-03-18T10:23:54;101402.09;;;25.85;14.27
33496;BME280;19836;55.812;37.560;2023-03-18T10:32:10;101398.53;;;26.11;12.66
33496;BME280;19836;55.812;37.560;2023-03-18T10:38:01;101395.94;;;26.22;12.85
33496;BME280;19836;55.812;37.560;2023-03-18T10:40:34;101395.50;;;25.19;12.83
33496;BME280;19836;55.812;37.560;2023-03-18T10:43:03;101388.34;;;23.54;12.49
33496;BME280;19836;55.812;37.560;2023-03-18T10:45:30;101383.13;;;22.52;12.93
33496;BME280;19836;55.812;37.560;2023-03-18T10:48:03;101391.25;;;21.82;12.72
33496;BME280;19836;55.812;37.560;2023-03-18T10:50:41;101390.84;;;21.54;13.36
33496;BME280;19836;55.812;37.560;2023-03-18T10:53:33;101394.50;;;21.53;13.17
33496;BME280;19836;55.812;37.560;2023-03-18T10:56:13;101381.53;;;22.12;12.93
33496;BME280;19836;55.812;37.560;2023-03-18T10:58:41;101386.66;;;23.51;12.86
33496;BME280;19836;55.812;37.560;2023-03-18T11:01:12;101384.13;;;24.97;12.32
33496;BME280;19836;55.812;37.560;2023-03-18T11:04:00;101376.88;;;24.82;12.05
33496;BME280;19836;55.812;37.560;2023-03-18T11:06:38;101379.59;;;22.82;11.97
33496;BME280;19836;55.812;37.560;2023-03-18T11:09:09;101381.59;;;21.94;12.14
33496;BME280;19836;55.812;37.560;2023-03-18T11:11:39;101370.78;;;22.26;12.67
33496;BME280;19836;55.812;37.560;2023-03-18T11:14:09;101372.25;;;23.94;12.61
33496;BME280;19836;55.812;37.560;2023-03-18T11:16:47;101374.91;;;23.80;11.99
33496;BME280;19836;55.812;37.560;2023-03-18T11:24:32;101365.44;;;23.39;11.94
33496;BME280;19836;55.812;37.560;2023-03-18T11:29:41;101365.47;;;23.70;12.09
33496;BME280;19836;55.812;37.560;2023-03-18T11:32:26;101358.38;;;24.27;11.69
33496;BME280;19836;55.812;37.560;2023-03-18T11:34:56;101360.25;;;25.27;11.75
33496;BME280;19836;55.812;37.560;2023-03-18T11:37:49;101346.16;;;26.39;11.60
33496;BME280;19836;55.812;37.560;2023-03-18T11:40:24;101347.00;;;26.66;10.80
33496;BME280;19836;55.812;37.560;2023-03-18T11:42:59;101355.50;;;24.87;10.88
33496;BME280;19836;55.812;37.560;2023-03-18T11:45:41;101355.66;;;23.66;11.13
33496;BME280;19836;55.812;37.560;2023-03-18T11:48:35;101355.22;;;23.43;11.58
33496;BME280;19836;55.812;37.560;2023-03-18T11:51:31;101353.16;;;22.66;11.95
33496;BME280;19836;55.812;37.560;2023-03-18T11:59:33;101351.38;;;20.67;13.25
33496;BME280;19836;55.812;37.560;2023-03-18T12:02:49;101354.34;;;21.38;13.14
33496;BME280;19836;55.812;37.560;2023-03-18T12:10:39;101350.25;;;19.27;14.20
33496;BME280;19836;55.812;37.560;2023-03-18T12:16:05;101337.50;;;22.35;13.17
33496;BME280;19836;55.812;37.560;2023-03-18T12:21:36;101312.03;;;24.52;11.90
33496;BME280;19836;55.812;37.560;2023-03-18T12:41:23;101308.34;;;21.31;13.27
33496;BME280;19836;55.812;37.560;2023-03-18T12:46:54;101313.47;;;20.81;13.39
33496;BME280;19836;55.812;37.560;2023-03-18T12:50:05;101303.66;;;19.99;13.53
33496;BME280;19836;55.812;37.560;2023-03-18T12:55:30;101293.63;;;19.15;14.14
33496;BME280;19836;55.812;37.560;2023-03-18T12:58:02;101296.72;;;20.90;14.01
33496;BME280;19836;55.812;37.560;2023-03-18T13:00:38;101277.28;;;22.04;13.47
33496;BME280;19836;55.812;37.560;2023-03-18T13:11:18;101284.22;;;20.66;12.58
33496;BME280;19836;55.812;37.560;2023-03-18T13:13:53;101280.31;;;19.73;13.55
33496;BME280;19836;55.812;37.560;2023-03-18T13:16:21;101278.78;;;19.66;14.02
33496;BME280;19836;55.812;37.560;2023-03-18T13:18:52;101270.91;;;20.60;13.78
33496;BME280;19836;55.812;37.560;2023-03-18T13:21:24;101278.50;;;20.34;13.77
33496;BME280;19836;55.812;37.560;2023-03-18T13:35:24;101263.94;;;21.98;13.35
33496;BME280;19836;55.812;37.560;2023-03-18T13:43:42;101252.88;;;21.13;12.84
33496;BME280;19836;55.812;37.560;2023-03-18T13:46:21;101259.91;;;20.43;13.07
33496;BME280;19836;55.812;37.560;2023-03-18T13:49:15;101255.22;;;20.65;12.69
33496;BME280;19836;55.812;37.560;2023-03-18T13:52:02;101246.91;;;20.30;12.48
33496;BME280;19836;55.812;37.560;2023-03-18T13:54:40;101248.38;;;19.57;12.65
33496;BME280;19836;55.812;37.560;2023-03-18T14:00:27;101244.63;;;18.73;13.35
33496;BME280;19836;55.812;37.560;2023-03-18T14:14:23;101244.94;;;14.17;15.50
33496;BME280;19836;55.812;37.560;2023-03-18T17:14:54;101208.75;;;5.58;25.66
33496;BME280;19836;55.812;37.560;2023-03-18T17:21:37;101214.88;;;5.52;25.78
33496;BME280;19836;55.812;37.560;2023-03-18T17:24:06;101209.44;;;5.43;26.12
33496;BME280;19836;55.812;37.560;2023-03-18T17:26:39;101216.41;;;5.34;26.24
33496;BME280;19836;55.812;37.560;2023-03-18T17:29:27;101207.50;;;5.32;26.26
33496;BME280;19836;55.812;37.560;2023-03-18T17:31:57;101211.81;;;5.24;26.37
33496;BME280;19836;55.812;37.560;2023-03-18T17:34:24;101207.25;;;5.17;26.52
33496;BME280;19836;55.812;37.560;2023-03-18T17:38:12;101206.38;;;5.15;26.93
33496;BME280;19836;55.812;37.560;2023-03-18T17:40:41;101217.84;;;5.12;26.95
33496;BME280;19836;55.812;37.560;2023-03-18T17:43:27;101211.63;;;5.10;26.70
33496;BME280;19836;55.812;37.560;2023-03-18T17:45:58;101213.34;;;5.08;26.99
33496;BME280;19836;55.812;37.560;2023-03-18T17:48:53;101211.53;;;5.06;26.90
33496;BME280;19836;55.812;37.560;2023-03-18T17:51:25;101210.47;;;4.95;27.36
33496;BME280;19836;55.812;37.560;2023-03-18T17:53:59;101211.19;;;4.85;27.63